createdAt,value
2017-11-24T00:01:08.065Z,7.90
2017-11-24T00:03:37.180Z,7.90
2017-11-24T00:06:05.241Z,7.90
2017-11-24T00:08:34.520Z,7.90
2017-11-24T00:11:03.879Z,7.90
2017-11-24T00:13:31.876Z,7.90
2017-11-24T00:16:00.195Z,8.00
2017-11-24T00:18:28.350Z,7.90
2017-11-24T00:20:58.059Z,8.00
2017-11-24T00:23:27.183Z,8.00
2017-11-24T00:25:55.310Z,8.00
2017-11-24T00:28:24.219Z,8.00
2017-11-24T00:30:53.150Z,7.90
2017-11-24T00:33:21.473Z,7.90
2017-11-24T00:35:49.996Z,7.90
2017-11-24T00:38:18.339Z,7.90
2017-11-24T00:40:47.427Z,8.00
2017-11-24T00:43:16.515Z,8.00
2017-11-24T00:45:45.619Z,8.00
2017-11-24T00:48:14.784Z,8.00
2017-11-24T00:50:43.098Z,8.00
2017-11-24T00:53:11.231Z,8.00
2017-11-24T00:55:39.584Z,8.00
2017-11-24T00:58:09.108Z,7.90
2017-11-24T01:00:37.450Z,7.90
2017-11-24T01:03:05.767Z,7.90
2017-11-24T01:05:34.082Z,8.00
2017-11-24T01:08:02.448Z,7.90
2017-11-24T01:10:31.535Z,7.90
2017-11-24T01:13:00.628Z,8.00
2017-11-24T01:15:29.743Z,8.00
2017-11-24T01:17:58.702Z,8.00
2017-11-24T01:20:27.320Z,7.90
2017-11-24T01:22:55.766Z,7.90
2017-11-24T01:25:24.084Z,8.00
2017-11-24T01:27:52.428Z,7.90
2017-11-24T01:30:21.514Z,8.00
2017-11-24T01:32:49.959Z,8.00
2017-11-24T01:35:18.279Z,7.90
2017-11-24T01:37:47.368Z,7.90
2017-11-24T01:40:16.483Z,7.90
2017-11-24T01:42:44.811Z,7.90
2017-11-24T01:45:12.811Z,7.90
2017-11-24T01:47:41.934Z,7.90
2017-11-24T01:50:10.255Z,7.90
2017-11-24T01:55:40.747Z,7.80
2017-11-24T01:58:08.412Z,8.00
2017-11-24T02:00:36.399Z,8.00
2017-11-24T02:03:04.105Z,7.90
2017-11-24T02:05:33.197Z,7.90
2017-11-24T02:08:02.279Z,7.80
2017-11-24T02:10:30.618Z,7.80
2017-11-24T02:12:58.987Z,7.80
2017-11-24T02:15:27.310Z,7.90
2017-11-24T02:17:56.447Z,8.00
2017-11-24T02:20:24.339Z,8.00
2017-11-24T02:22:51.998Z,7.90
2017-11-24T02:25:20.318Z,8.00
2017-11-24T02:27:48.778Z,7.90
2017-11-24T02:30:16.436Z,7.80
2017-11-24T02:32:44.086Z,8.00
2017-11-24T02:35:11.783Z,8.20
2017-11-24T02:37:40.206Z,7.90
2017-11-24T02:40:08.532Z,7.90
2017-11-24T02:42:37.180Z,7.90
2017-11-24T02:45:04.849Z,7.90
2017-11-24T02:47:32.511Z,7.90
2017-11-24T02:50:00.010Z,8.00
2017-11-24T02:52:29.927Z,8.20
2017-11-24T02:54:58.469Z,8.20
2017-11-24T02:57:26.220Z,8.10
2017-11-24T02:59:54.204Z,8.10
2017-11-24T03:02:22.607Z,8.10
2017-11-24T03:04:50.956Z,8.10
2017-11-24T03:07:19.092Z,8.10
2017-11-24T03:09:47.228Z,8.10
2017-11-24T03:12:15.570Z,8.10
2017-11-24T03:14:43.555Z,8.10
2017-11-24T03:17:12.340Z,8.00
2017-11-24T03:19:40.765Z,8.10
2017-11-24T03:22:09.290Z,8.10
2017-11-24T03:24:37.658Z,8.10
2017-11-24T03:27:05.983Z,8.00
2017-11-24T03:29:34.499Z,8.00
2017-11-24T03:32:02.515Z,8.00
2017-11-24T03:34:31.281Z,8.10
2017-11-24T03:36:59.596Z,8.10
2017-11-24T03:39:28.005Z,8.10
2017-11-24T03:41:56.526Z,8.00
2017-11-24T03:44:26.039Z,7.90
2017-11-24T03:46:54.544Z,7.90
2017-11-24T03:49:22.530Z,7.90
2017-11-24T03:51:51.567Z,7.90
2017-11-24T03:54:20.656Z,7.80
2017-11-24T03:56:48.981Z,7.80
2017-11-24T03:59:17.332Z,8.00
2017-11-24T04:01:45.464Z,8.00
2017-11-24T04:04:13.787Z,8.00
2017-11-24T04:06:41.820Z,7.90
2017-11-24T04:09:10.148Z,8.00
2017-11-24T04:11:38.472Z,7.90
2017-11-24T04:14:06.844Z,8.00
2017-11-24T04:16:35.180Z,7.90
2017-11-24T04:19:03.318Z,8.00
2017-11-24T04:21:31.777Z,8.00
2017-11-24T04:23:59.433Z,8.00
2017-11-24T04:26:28.243Z,8.00
2017-11-24T04:28:57.372Z,7.80
2017-11-24T04:31:26.116Z,7.80
2017-11-24T04:33:54.432Z,7.90
2017-11-24T04:36:22.450Z,7.80
2017-11-24T04:38:50.983Z,7.90
2017-11-24T04:41:18.982Z,7.90
2017-11-24T04:43:46.641Z,7.90
2017-11-24T04:46:14.796Z,7.90
2017-11-24T04:48:43.322Z,7.80
2017-11-24T04:51:12.472Z,7.80
2017-11-24T04:53:40.965Z,7.80
2017-11-24T04:56:09.492Z,7.80
2017-11-24T04:58:38.799Z,7.80
2017-11-24T05:01:07.119Z,7.80
2017-11-24T05:03:35.439Z,7.90
2017-11-24T05:06:04.571Z,7.90
2017-11-24T05:08:33.083Z,7.90
2017-11-24T05:11:01.402Z,7.90
2017-11-24T05:13:30.192Z,7.80
2017-11-24T05:15:58.904Z,7.80
2017-11-24T05:18:27.427Z,7.80
2017-11-24T05:20:55.954Z,7.80
2017-11-24T05:23:23.938Z,7.90
2017-11-24T05:25:52.258Z,8.00
2017-11-24T05:28:21.437Z,8.00
2017-11-24T05:30:49.772Z,8.00
2017-11-24T05:33:18.286Z,8.00
2017-11-24T05:35:46.812Z,7.90
2017-11-24T05:38:15.133Z,7.90
2017-11-24T05:40:43.681Z,7.90
2017-11-24T05:43:12.119Z,7.90
2017-11-24T05:45:40.438Z,8.00
2017-11-24T05:48:08.762Z,8.00
2017-11-24T05:50:37.103Z,8.00
2017-11-24T05:53:05.426Z,8.00
2017-11-24T05:55:33.767Z,8.00
2017-11-24T05:58:02.288Z,7.90
2017-11-24T06:00:30.827Z,7.90
2017-11-24T06:02:59.143Z,7.90
2017-11-24T06:05:28.408Z,7.90
2017-11-24T06:07:57.392Z,7.80
2017-11-24T06:10:25.426Z,7.90
2017-11-24T06:12:53.746Z,8.00
2017-11-24T06:15:22.063Z,8.00
2017-11-24T06:17:50.858Z,8.00
2017-11-24T06:20:19.943Z,7.90
2017-11-24T06:22:49.231Z,8.00
2017-11-24T06:25:17.583Z,8.00
2017-11-24T06:27:45.902Z,8.00
2017-11-24T06:30:14.997Z,8.00
2017-11-24T06:32:44.120Z,8.00
2017-11-24T06:35:12.444Z,8.00
2017-11-24T06:37:40.773Z,8.00
2017-11-24T06:40:09.131Z,8.00
2017-11-24T06:42:37.448Z,8.00
2017-11-24T06:45:05.767Z,8.10
2017-11-24T06:47:34.919Z,8.10
2017-11-24T06:50:03.239Z,8.10
2017-11-24T06:52:32.139Z,8.10
2017-11-24T06:55:00.490Z,8.10
2017-11-24T06:57:28.809Z,8.10
2017-11-24T06:59:57.943Z,8.10
2017-11-24T07:02:26.952Z,8.10
2017-11-24T07:04:55.278Z,8.20
2017-11-24T07:07:23.735Z,8.20
2017-11-24T07:09:51.402Z,8.20
2017-11-24T07:12:20.564Z,8.20
2017-11-24T07:14:48.926Z,8.30
2017-11-24T07:17:16.723Z,8.30
2017-11-24T07:19:45.648Z,8.30
2017-11-24T07:22:14.267Z,8.30
2017-11-24T07:24:42.586Z,8.30
2017-11-24T07:27:10.912Z,8.30
2017-11-24T07:29:40.232Z,8.30
2017-11-24T07:32:08.363Z,8.30
2017-11-24T07:34:36.688Z,8.40
2017-11-24T07:37:05.907Z,8.40
2017-11-24T07:39:34.046Z,8.40
2017-11-24T07:42:03.555Z,8.30
2017-11-24T07:44:31.925Z,8.40
2017-11-24T07:47:00.239Z,8.30
2017-11-24T07:49:29.375Z,8.30
2017-11-24T07:51:58.735Z,8.40
2017-11-24T07:54:38.927Z,8.40
2017-11-24T07:57:17.540Z,8.40
2017-11-24T07:59:49.567Z,8.40
2017-11-24T08:15:03.240Z,8.40
2017-11-24T08:21:06.321Z,8.70
2017-11-24T08:29:03.328Z,8.80
2017-11-24T08:35:14.906Z,8.80
2017-11-24T08:40:27.856Z,9.10
2017-11-24T08:49:09.684Z,9.20
2017-11-24T08:51:37.999Z,9.10
2017-11-24T08:54:06.336Z,9.10
2017-11-24T08:56:34.717Z,9.10
2017-11-24T08:59:03.296Z,9.20
2017-11-24T09:01:31.621Z,9.20
2017-11-24T09:03:59.979Z,9.30
2017-11-24T09:06:29.064Z,9.40
2017-11-24T09:08:58.156Z,9.40
2017-11-24T09:11:27.087Z,9.40
2017-11-24T09:13:55.222Z,9.30
2017-11-24T09:16:24.316Z,9.40
2017-11-24T09:18:53.435Z,9.50
2017-11-24T09:21:21.755Z,9.40
2017-11-24T09:23:50.083Z,9.40
2017-11-24T09:26:18.427Z,9.40
2017-11-24T09:28:46.979Z,9.50
2017-11-24T09:31:15.499Z,9.50
2017-11-24T09:33:44.615Z,9.60
2017-11-24T09:36:12.943Z,9.60
2017-11-24T09:38:41.265Z,9.60
2017-11-24T09:41:09.626Z,9.60
2017-11-24T09:43:38.715Z,9.70
2017-11-24T09:46:07.467Z,9.70
2017-11-24T09:48:35.838Z,9.70
2017-11-24T09:51:04.928Z,9.90
2017-11-24T09:53:33.251Z,9.80
2017-11-24T09:56:02.374Z,9.80
2017-11-24T09:58:30.508Z,9.80
2017-11-24T10:00:58.856Z,9.90
2017-11-24T10:03:27.184Z,9.80
2017-11-24T10:05:56.304Z,9.90
2017-11-24T10:08:24.441Z,9.90
2017-11-24T10:10:53.527Z,10.00
2017-11-24T10:13:22.653Z,10.00
2017-11-24T10:15:50.979Z,10.00
2017-11-24T10:18:19.318Z,10.10
2017-11-24T10:20:54.089Z,10.10
2017-11-24T10:23:22.411Z,10.10
2017-11-24T10:25:50.771Z,10.00
2017-11-24T10:28:19.100Z,10.10
2017-11-24T10:30:48.093Z,10.10
2017-11-24T10:33:16.993Z,10.20
2017-11-24T10:35:45.322Z,10.10
2017-11-24T10:38:13.846Z,10.10
2017-11-24T10:40:42.195Z,10.20
2017-11-24T10:43:10.519Z,10.20
2017-11-24T10:45:38.700Z,10.10
2017-11-24T10:48:07.795Z,10.20
2017-11-24T10:50:36.111Z,10.20
2017-11-24T10:53:04.472Z,10.20
2017-11-24T10:55:32.793Z,10.30
2017-11-24T10:58:01.119Z,10.30
2017-11-24T11:00:29.482Z,10.50
2017-11-24T11:02:58.584Z,10.50
2017-11-24T11:05:27.674Z,10.60
2017-11-24T11:07:56.814Z,10.60
2017-11-24T11:10:25.321Z,10.60
2017-11-24T11:12:53.691Z,10.70
2017-11-24T11:15:22.010Z,10.90
2017-11-24T11:17:50.334Z,11.00
2017-11-24T11:20:18.692Z,11.00
2017-11-24T11:22:47.674Z,11.00
2017-11-24T11:25:16.006Z,11.00
2017-11-24T11:27:44.359Z,11.00
2017-11-24T11:30:12.166Z,11.00
2017-11-24T11:32:41.290Z,11.10
2017-11-24T11:35:09.629Z,11.10
2017-11-24T11:37:38.391Z,11.50
2017-11-24T11:40:06.767Z,11.50
2017-11-24T11:42:35.297Z,11.40
2017-11-24T11:45:03.624Z,11.50
2017-11-24T11:47:31.987Z,11.50
2017-11-24T11:50:00.316Z,11.70
2017-11-24T11:52:27.978Z,11.80
2017-11-24T11:54:56.111Z,11.90
2017-11-24T11:57:24.436Z,12.00
2017-11-24T11:59:52.767Z,12.00
2017-11-24T12:02:21.543Z,12.00
2017-11-24T12:04:49.389Z,12.00
2017-11-24T12:07:17.731Z,12.00
2017-11-24T12:09:45.906Z,12.20
2017-11-24T12:12:15.344Z,12.10
2017-11-24T12:14:43.673Z,12.10
2017-11-24T12:17:12.768Z,12.00
2017-11-24T12:19:41.889Z,11.90
2017-11-24T12:22:10.220Z,11.90
2017-11-24T12:24:38.545Z,11.90
2017-11-24T12:27:06.585Z,12.00
2017-11-24T12:29:35.676Z,12.00
2017-11-24T12:32:04.769Z,12.10
2017-11-24T12:34:33.884Z,12.10
2017-11-24T12:37:02.204Z,12.00
2017-11-24T12:39:30.553Z,12.00
2017-11-24T12:41:59.813Z,12.00
2017-11-24T12:44:28.899Z,11.90
2017-11-24T12:46:57.996Z,11.90
2017-11-24T12:49:27.125Z,12.00
2017-11-24T12:51:56.486Z,12.00
2017-11-24T12:54:24.629Z,11.90
2017-11-24T12:56:52.983Z,12.00
2017-11-24T12:59:21.119Z,11.90
2017-11-24T13:01:50.023Z,11.80
2017-11-24T13:04:18.588Z,11.80
2017-11-24T13:06:47.827Z,11.80
2017-11-24T13:09:16.155Z,11.80
2017-11-24T13:11:44.499Z,11.90
2017-11-24T13:14:12.823Z,11.90
2017-11-24T13:16:41.938Z,11.70
2017-11-24T13:19:10.263Z,11.70
2017-11-24T13:21:38.632Z,11.70
2017-11-24T13:24:06.969Z,11.60
2017-11-24T13:26:35.491Z,11.60
2017-11-24T13:29:03.859Z,11.60
2017-11-24T13:31:32.956Z,11.50
2017-11-24T13:34:02.048Z,11.30
2017-11-24T13:36:30.603Z,11.30
2017-11-24T13:38:58.931Z,11.20
2017-11-24T13:41:27.486Z,11.10
2017-11-24T13:43:55.812Z,11.00
2017-11-24T13:46:24.908Z,11.00
2017-11-24T13:48:54.025Z,11.00
2017-11-24T13:51:22.346Z,11.00
2017-11-24T13:53:50.669Z,11.00
2017-11-24T13:56:19.879Z,11.10
2017-11-24T13:58:48.021Z,11.10
2017-11-24T14:01:16.339Z,11.10
2017-11-24T14:03:44.693Z,11.00
2017-11-24T14:06:13.031Z,11.00
2017-11-24T14:08:41.380Z,10.90
2017-11-24T14:11:09.743Z,10.80
2017-11-24T14:13:38.273Z,10.80
2017-11-24T14:16:06.596Z,10.70
2017-11-24T14:18:34.955Z,10.70
2017-11-24T14:21:03.288Z,10.70
2017-11-24T14:23:32.375Z,10.80
2017-11-24T14:26:01.517Z,10.90
2017-11-24T14:28:30.045Z,10.80
2017-11-24T14:30:59.148Z,10.80
2017-11-24T14:33:28.476Z,10.70
2017-11-24T14:35:56.996Z,10.70
2017-11-24T14:38:25.319Z,10.70
2017-11-24T14:40:53.691Z,10.70
2017-11-24T14:43:22.014Z,10.70
2017-11-24T14:45:50.370Z,10.70
2017-11-24T14:48:28.010Z,10.60
2017-11-24T14:50:56.360Z,10.60
2017-11-24T14:53:24.693Z,10.60
2017-11-24T14:55:53.067Z,10.50
2017-11-24T14:58:21.973Z,10.50
2017-11-24T15:00:50.114Z,10.50
2017-11-24T15:03:20.059Z,10.60
2017-11-24T15:05:49.237Z,10.60
2017-11-24T15:08:19.014Z,10.60
2017-11-24T15:10:47.244Z,10.60
2017-11-24T15:13:15.404Z,10.70
2017-11-24T15:15:43.548Z,10.70
2017-11-24T15:18:11.876Z,10.60
2017-11-24T15:20:40.451Z,10.60
2017-11-24T15:23:08.775Z,10.50
2017-11-24T15:25:37.112Z,10.50
2017-11-24T15:28:05.662Z,10.50
2017-11-24T15:30:33.995Z,10.50
2017-11-24T15:33:02.320Z,10.60
2017-11-24T15:35:30.687Z,10.60
2017-11-24T15:37:59.591Z,10.50
2017-11-24T15:40:27.591Z,10.50
2017-11-24T15:42:55.956Z,10.50
2017-11-24T15:45:23.625Z,10.60
2017-11-24T15:47:51.951Z,10.60
2017-11-24T15:50:21.271Z,10.40
2017-11-24T15:52:50.460Z,10.40
2017-11-24T15:55:20.505Z,10.50
2017-11-24T15:57:49.460Z,10.50
2017-11-24T16:00:18.808Z,10.50
2017-11-24T16:02:47.347Z,10.40
2017-11-24T16:05:16.451Z,10.50
2017-11-24T16:07:44.787Z,10.40
2017-11-24T16:10:13.150Z,10.50
2017-11-24T16:12:41.674Z,10.40
2017-11-24T16:15:10.766Z,10.40
2017-11-24T16:17:39.884Z,10.40
2017-11-24T16:20:08.211Z,10.30
2017-11-24T16:22:36.552Z,10.30
2017-11-24T16:25:05.121Z,10.40
2017-11-24T16:27:33.451Z,10.40
2017-11-24T16:30:01.774Z,10.40
2017-11-24T16:32:30.141Z,10.30
2017-11-24T16:34:58.472Z,10.30
2017-11-24T16:37:26.467Z,10.20
2017-11-24T16:39:55.024Z,10.30
2017-11-24T16:42:23.364Z,10.20
2017-11-24T16:44:51.687Z,10.20
2017-11-24T16:47:19.700Z,10.20
2017-11-24T16:49:48.732Z,10.10
2017-11-24T16:52:17.321Z,10.10
2017-11-24T16:54:45.636Z,10.10
2017-11-24T16:57:13.969Z,10.10
2017-11-24T16:59:42.335Z,10.10
2017-11-24T17:02:10.329Z,10.10
2017-11-24T17:04:38.670Z,10.00
2017-11-24T17:07:07.016Z,10.00
2017-11-24T17:09:35.212Z,10.10
2017-11-24T17:12:03.739Z,10.00
2017-11-24T17:14:31.447Z,10.00
2017-11-24T17:16:59.781Z,10.00
2017-11-24T17:19:28.107Z,10.00
2017-11-24T17:21:56.120Z,10.00
2017-11-24T17:24:24.494Z,10.00
2017-11-24T17:26:52.483Z,10.00
2017-11-24T17:29:21.576Z,10.00
2017-11-24T17:31:50.708Z,9.90
2017-11-24T17:34:19.743Z,9.90
2017-11-24T17:36:48.639Z,9.90
2017-11-24T17:39:17.380Z,9.80
2017-11-24T17:41:45.696Z,9.80
2017-11-24T17:44:14.021Z,9.70
2017-11-24T17:46:42.370Z,9.70
2017-11-24T17:49:11.280Z,9.80
2017-11-24T17:51:39.270Z,9.80
2017-11-24T17:54:07.611Z,9.80
2017-11-24T17:56:36.737Z,9.70
2017-11-24T17:59:05.255Z,9.70
2017-11-24T18:01:33.585Z,9.70
2017-11-24T18:04:01.935Z,9.60
2017-11-24T18:06:31.106Z,9.70
2017-11-24T18:08:59.466Z,9.60
2017-11-24T18:11:27.823Z,9.70
2017-11-24T18:13:56.148Z,9.60
2017-11-24T18:16:24.470Z,9.60
2017-11-24T18:18:52.819Z,9.70
2017-11-24T18:21:21.714Z,9.70
2017-11-24T18:23:50.617Z,9.70
2017-11-24T18:26:18.987Z,9.60
2017-11-24T18:28:48.382Z,9.80
2017-11-24T18:31:17.398Z,9.80
2017-11-24T18:33:45.735Z,9.70
2017-11-24T18:36:14.879Z,9.70
2017-11-24T18:38:43.225Z,9.70
2017-11-24T18:41:12.128Z,9.80
2017-11-24T18:43:40.299Z,9.80
2017-11-24T18:46:07.764Z,9.80
2017-11-24T18:48:35.914Z,9.80
2017-11-24T18:51:05.251Z,9.80
2017-11-24T18:53:33.603Z,9.80
2017-11-24T18:56:01.935Z,9.90
2017-11-24T18:58:30.300Z,9.90
2017-11-24T19:00:58.291Z,10.00
2017-11-24T19:03:26.623Z,9.90
2017-11-24T19:05:54.990Z,9.90
2017-11-24T19:08:24.227Z,9.90
2017-11-24T19:10:52.366Z,9.90
2017-11-24T19:13:20.715Z,9.90
2017-11-24T19:15:50.557Z,9.80
2017-11-24T19:18:18.887Z,9.80
2017-11-24T19:20:48.044Z,9.90
2017-11-24T19:23:16.379Z,9.80
2017-11-24T19:25:44.717Z,9.80
2017-11-24T19:28:13.094Z,9.90
2017-11-24T19:30:41.099Z,9.80
2017-11-24T19:33:09.431Z,9.80
2017-11-24T19:35:37.193Z,9.80
2017-11-24T19:38:04.886Z,9.80
2017-11-24T19:40:33.991Z,9.70
2017-11-24T19:43:03.138Z,9.80
2017-11-24T19:45:31.463Z,9.70
2017-11-24T19:48:00.558Z,9.70
2017-11-24T19:50:29.368Z,9.70
2017-11-24T19:53:12.187Z,9.70
2017-11-24T19:55:41.298Z,9.70
2017-11-24T19:58:09.828Z,9.70
2017-11-24T20:00:38.224Z,9.70
2017-11-24T20:03:06.567Z,9.70
2017-11-24T20:05:35.091Z,9.70
2017-11-24T20:08:04.223Z,9.80
2017-11-24T20:10:32.574Z,9.80
2017-11-24T20:13:00.626Z,9.70
2017-11-24T20:15:30.026Z,9.70
2017-11-24T20:17:58.549Z,9.70
2017-11-24T20:20:26.935Z,9.70
2017-11-24T20:22:55.598Z,9.70
2017-11-24T20:25:24.024Z,9.70
2017-11-24T20:27:52.444Z,9.60
2017-11-24T20:30:20.814Z,9.70
2017-11-24T20:32:50.860Z,9.60
2017-11-24T20:35:19.630Z,9.60
2017-11-24T20:37:48.458Z,9.60
2017-11-24T20:40:16.160Z,9.60
2017-11-24T20:42:45.297Z,9.60
2017-11-24T20:45:13.620Z,9.60
2017-11-24T20:47:41.768Z,9.60
2017-11-24T20:50:10.868Z,9.60
2017-11-24T20:52:38.851Z,9.60
2017-11-24T20:55:07.214Z,9.60
2017-11-24T20:57:36.125Z,9.50
2017-11-24T21:00:05.228Z,9.50
2017-11-24T21:02:33.683Z,9.40
2017-11-24T21:05:02.043Z,9.50
2017-11-24T21:07:30.368Z,9.50
2017-11-24T21:09:59.476Z,9.40
2017-11-24T21:12:28.375Z,9.50
2017-11-24T21:14:56.778Z,9.50
2017-11-24T21:17:25.167Z,9.50
2017-11-24T21:19:53.565Z,9.50
2017-11-24T21:22:22.024Z,9.50
2017-11-24T21:24:50.357Z,9.40
2017-11-24T21:27:20.139Z,9.30
2017-11-24T21:29:48.513Z,9.30
2017-11-24T21:32:17.023Z,9.30
2017-11-24T21:34:46.152Z,9.30
2017-11-24T21:37:14.476Z,9.30
2017-11-24T21:39:43.563Z,9.30
2017-11-24T21:42:11.743Z,9.30
2017-11-24T21:44:40.062Z,9.40
2017-11-24T21:47:08.388Z,9.30
2017-11-24T21:49:36.791Z,9.40
2017-11-24T21:52:06.115Z,9.20
2017-11-24T21:54:34.687Z,9.20
2017-11-24T21:57:03.044Z,9.20
2017-11-24T21:59:32.131Z,9.10
2017-11-24T22:02:02.247Z,9.00
2017-11-24T22:04:31.341Z,9.00
2017-11-24T22:06:59.664Z,9.00
2017-11-24T22:09:28.011Z,9.00
2017-11-24T22:11:58.071Z,8.90
2017-11-24T22:14:26.396Z,8.90
2017-11-24T22:16:55.532Z,8.90
2017-11-24T22:19:23.853Z,8.90
2017-11-24T22:21:52.179Z,8.90
2017-11-24T22:24:20.532Z,8.90
2017-11-24T22:26:49.426Z,9.00
2017-11-24T22:29:18.394Z,9.00
2017-11-24T22:31:47.537Z,9.00
2017-11-24T22:34:16.611Z,8.90
2017-11-24T22:36:44.752Z,8.90
2017-11-24T22:39:13.696Z,8.90
2017-11-24T22:41:42.016Z,8.90
2017-11-24T22:44:10.154Z,8.90
2017-11-24T22:46:38.506Z,8.90
2017-11-24T22:49:06.825Z,8.90
2017-11-24T22:51:35.150Z,8.90
2017-11-24T22:54:03.510Z,8.80
2017-11-24T22:56:32.590Z,9.00
2017-11-24T22:59:01.764Z,9.00
2017-11-24T23:01:30.281Z,9.00
2017-11-24T23:03:58.835Z,9.10
2017-11-24T23:06:27.211Z,9.00
2017-11-24T23:08:55.540Z,8.90
2017-11-24T23:11:23.883Z,9.00
2017-11-24T23:13:52.200Z,9.00
2017-11-24T23:16:20.551Z,8.90
2017-11-24T23:18:49.639Z,8.90
2017-11-24T23:21:19.477Z,8.90
2017-11-24T23:23:48.530Z,9.00
2017-11-24T23:26:16.853Z,8.90
2017-11-24T23:28:45.178Z,8.90
2017-11-24T23:31:13.546Z,9.00
2017-11-24T23:33:41.872Z,8.90
2017-11-24T23:36:10.195Z,8.80
2017-11-24T23:38:38.538Z,8.80
2017-11-24T23:41:06.886Z,8.80
2017-11-24T23:43:35.976Z,8.80
2017-11-24T23:46:05.063Z,8.70
2017-11-24T23:48:34.201Z,8.80
2017-11-24T23:51:02.520Z,9.00
2017-11-24T23:53:30.842Z,8.90
2017-11-24T23:55:59.189Z,8.80
2017-11-24T23:58:28.276Z,8.60
